Time;durP1;ratioP1;P1;durP2;ratioP2;P2;SDS_P1;SDS_P2;PMS_P1;PMS_P2;Temp;Humidity;BMP_temperature;BMP_pressure;BME280_temperature;BME280_humidity;BME280_pressure;Samples;Min_cycle;Max_cycle;Signal;HPM_P1;HPM_P2
2022/01/14 00:02:01;;;;;;;6.33;4.27;;;2.50;99.90;;;;;;4975198;28;20192;-65
2022/01/14 00:04:28;;;;;;;5.87;4.03;;;2.50;99.90;;;;;;4975131;28;20204;-66
2022/01/14 00:06:55;;;;;;;5.80;3.77;;;2.50;99.90;;;;;;4974901;28;20211;-67
2022/01/14 00:09:23;;;;;;;5.37;3.90;;;2.60;99.90;;;;;;4975219;28;20592;-67
2022/01/14 00:11:55;;;;;;;5.53;3.67;;;2.60;99.90;;;;;;4975134;28;20598;-65
2022/01/14 00:14:36;;;;;;;5.30;3.73;;;2.60;99.90;;;;;;4975274;28;20708;-65
2022/01/14 00:17:04;;;;;;;4.67;3.33;;;2.60;99.90;;;;;;4989792;28;20222;-67
2022/01/14 00:19:31;;;;;;;4.40;3.57;;;2.60;99.90;;;;;;4994601;28;20230;-66
2022/01/14 00:21:59;;;;;;;4.80;3.70;;;2.60;99.90;;;;;;4994479;28;20207;-67
2022/01/14 00:24:32;;;;;;;5.43;3.57;;;2.60;99.90;;;;;;4994515;28;20207;-65
2022/01/14 00:32:37;;;;;;;6.37;3.53;;;2.70;99.90;;;;;;4994113;28;20318;-67
2022/01/14 00:35:05;;;;;;;4.27;3.17;;;2.70;99.90;;;;;;4984673;28;20200;-67
2022/01/14 00:37:32;;;;;;;5.63;3.50;;;2.70;99.90;;;;;;4974380;28;20295;-68
2022/01/14 00:39:58;;;;;;;4.57;3.20;;;2.70;99.90;;;;;;4974439;28;20215;-67
2022/01/14 00:42:27;;;;;;;5.03;3.10;;;2.70;99.90;;;;;;4974782;28;20298;-66
2022/01/14 00:44:53;;;;;;;4.67;3.10;;;2.70;99.90;;;;;;4974317;28;20214;-67
2022/01/14 00:47:20;;;;;;;4.23;3.17;;;2.70;99.90;;;;;;4974625;28;20545;-66
2022/01/14 00:49:47;;;;;;;4.50;3.17;;;2.70;99.90;;;;;;4974287;28;20251;-65
2022/01/14 00:52:14;;;;;;;3.43;3.10;;;2.80;99.90;;;;;;4974430;28;20728;-66
2022/01/14 00:54:40;;;;;;;6.03;3.50;;;2.80;99.90;;;;;;4974162;28;20208;-66
2022/01/14 00:57:28;;;;;;;4.77;2.87;;;2.80;99.90;;;;;;4974317;28;20591;-65
2022/01/14 00:59:55;;;;;;;4.57;2.90;;;2.80;99.90;;;;;;4973061;28;20242;-67
2022/01/14 01:02:22;;;;;;;3.97;3.00;;;2.90;99.90;;;;;;4974430;28;20212;-66
2022/01/14 01:04:50;;;;;;;4.30;2.90;;;2.90;99.90;;;;;;4974189;28;20211;-66
2022/01/14 01:07:18;;;;;;;3.67;2.70;;;2.90;99.90;;;;;;4974102;28;20208;-66
2022/01/14 01:09:49;;;;;;;4.20;3.00;;;2.90;99.90;;;;;;4973876;28;20303;-65
2022/01/14 01:12:17;;;;;;;3.70;2.70;;;2.90;99.90;;;;;;4976375;28;20274;-65
2022/01/14 01:14:48;;;;;;;4.17;2.80;;;2.90;99.90;;;;;;4993107;28;20542;-65
2022/01/14 01:17:17;;;;;;;4.20;3.00;;;2.90;99.90;;;;;;4993110;28;20199;-65
2022/01/14 01:19:44;;;;;;;3.83;2.80;;;2.90;99.90;;;;;;4993211;28;20208;-65
2022/01/14 01:22:11;;;;;;;3.80;2.47;;;3.00;99.90;;;;;;4993206;28;20203;-66
2022/01/14 01:24:38;;;;;;;2.97;2.70;;;3.00;99.90;;;;;;4993200;28;20215;-67
2022/01/14 01:27:08;;;;;;;3.80;2.67;;;3.00;99.90;;;;;;4993226;28;20207;-66
2022/01/14 01:29:52;;;;;;;4.43;2.70;;;3.00;99.90;;;;;;4993065;28;20251;-67
2022/01/14 01:32:21;;;;;;;3.63;2.73;;;3.00;99.90;;;;;;4976178;28;20700;-66
2022/01/14 01:34:48;;;;;;;3.40;2.73;;;3.00;99.90;;;;;;4973715;28;20563;-66
2022/01/14 01:37:15;;;;;;;3.33;2.50;;;3.00;99.90;;;;;;4973611;28;20212;-66
2022/01/14 01:39:42;;;;;;;5.33;3.00;;;3.10;99.90;;;;;;4973445;28;20215;-64
2022/01/14 01:42:11;;;;;;;4.77;2.50;;;3.10;99.90;;;;;;4973444;28;20218;-65
2022/01/14 01:44:39;;;;;;;2.97;2.47;;;3.00;99.90;;;;;;4973207;28;20215;-66
2022/01/14 01:47:07;;;;;;;5.97;2.77;;;3.10;99.90;;;;;;4973513;28;20208;-65
2022/01/14 01:49:37;;;;;;;3.37;2.60;;;3.10;99.90;;;;;;4973008;28;20226;-66
2022/01/14 01:52:05;;;;;;;3.83;2.90;;;3.10;99.90;;;;;;4973307;28;20242;-65
2022/01/14 01:54:32;;;;;;;3.87;2.90;;;3.10;99.90;;;;;;4973051;28;20208;-66
2022/01/14 01:57:00;;;;;;;3.90;2.77;;;3.10;99.90;;;;;;4982246;28;20204;-67
2022/01/14 01:59:28;;;;;;;4.80;3.17;;;3.10;99.90;;;;;;4990567;28;20227;-67
2022/01/14 02:01:58;;;;;;;4.27;3.03;;;3.10;99.90;;;;;;4991706;28;20195;-64
2022/01/14 02:04:25;;;;;;;4.07;3.10;;;3.00;99.90;;;;;;4990155;28;20211;-65
2022/01/14 02:06:55;;;;;;;5.93;3.10;;;3.00;99.90;;;;;;4992304;28;20203;-65
2022/01/14 02:09:24;;;;;;;4.27;3.00;;;3.00;99.90;;;;;;4992282;28;20207;-66
2022/01/14 02:11:51;;;;;;;4.97;3.20;;;3.00;99.90;;;;;;4992112;28;20232;-64
2022/01/14 02:14:39;;;;;;;4.53;3.10;;;3.00;99.90;;;;;;4991920;28;20207;-66
2022/01/14 02:17:30;;;;;;;3.30;2.90;;;3.00;99.90;;;;;;4992608;28;20286;-64
2022/01/14 02:22:48;;;;;;;5.67;3.70;;;3.00;99.90;;;;;;4992157;28;20210;-66
2022/01/14 02:25:16;;;;;;;5.70;3.30;;;3.00;99.90;;;;;;4992163;28;20188;-66
2022/01/14 02:27:44;;;;;;;6.17;3.87;;;3.00;99.90;;;;;;4992464;28;20324;-64
2022/01/14 02:30:11;;;;;;;5.37;3.47;;;3.00;99.90;;;;;;4991680;28;20199;-65
2022/01/14 02:32:39;;;;;;;6.23;3.50;;;3.00;99.90;;;;;;4991837;28;20207;-64
2022/01/14 02:35:09;;;;;;;5.20;3.60;;;3.00;99.90;;;;;;4992291;28;20716;-66
2022/01/14 02:37:36;;;;;;;4.97;3.60;;;3.00;99.90;;;;;;4992271;28;20211;-65
2022/01/14 02:40:04;;;;;;;6.40;4.17;;;3.00;99.90;;;;;;4992083;28;20258;-65
2022/01/14 02:42:31;;;;;;;5.97;3.80;;;3.00;99.90;;;;;;4992176;28;20203;-65
2022/01/14 02:45:02;;;;;;;5.97;3.70;;;3.00;99.90;;;;;;4992264;28;20207;-66
2022/01/14 02:47:29;;;;;;;5.80;3.67;;;3.00;99.90;;;;;;4992047;28;20652;-66
2022/01/14 02:49:56;;;;;;;6.50;4.03;;;3.00;99.90;;;;;;4991207;28;20212;-65
2022/01/14 02:52:39;;;;;;;5.10;4.00;;;3.00;99.90;;;;;;4991599;28;20227;-64
2022/01/14 02:55:16;;;;;;;6.53;4.30;;;3.00;99.90;;;;;;4992222;28;20196;-64
2022/01/14 02:57:43;;;;;;;6.70;4.10;;;3.00;99.90;;;;;;4991639;28;20246;-65
2022/01/14 03:00:12;;;;;;;5.60;4.00;;;3.00;99.90;;;;;;4991590;28;20526;-65
2022/01/14 03:02:43;;;;;;;7.03;4.33;;;3.00;99.90;;;;;;4991736;28;20208;-65
2022/01/14 03:05:10;;;;;;;5.87;4.00;;;3.00;99.90;;;;;;4991547;28;20204;-65
2022/01/14 03:07:39;;;;;;;5.53;3.90;;;3.00;99.90;;;;;;4991520;28;20204;-68
2022/01/14 03:10:07;;;;;;;5.97;4.30;;;3.00;99.90;;;;;;4991337;28;20310;-65
2022/01/14 03:12:35;;;;;;;10.00;4.93;;;3.00;99.90;;;;;;4991875;28;20227;-65
2022/01/14 03:15:02;;;;;;;7.37;4.33;;;3.00;99.90;;;;;;4992047;28;20214;-66
2022/01/14 03:17:29;;;;;;;6.20;4.30;;;3.00;99.90;;;;;;4991273;28;20207;-65
2022/01/14 03:19:58;;;;;;;6.33;4.40;;;3.00;99.90;;;;;;4991744;28;20668;-66
2022/01/14 03:22:29;;;;;;;6.80;4.50;;;3.00;99.90;;;;;;4991182;28;20203;-65
2022/01/14 03:27:42;;;;;;;8.80;4.40;;;3.00;99.90;;;;;;4994738;28;20223;-66
2022/01/14 03:30:09;;;;;;;5.63;4.20;;;3.00;99.90;;;;;;4994620;28;20212;-66
2022/01/14 03:32:36;;;;;;;7.63;4.53;;;3.00;99.90;;;;;;4994892;28;20227;-64
2022/01/14 03:35:03;;;;;;;6.53;4.53;;;3.00;99.90;;;;;;4994944;28;20697;-66
2022/01/14 03:37:30;;;;;;;6.73;4.30;;;3.00;99.90;;;;;;4994010;28;20207;-65
2022/01/14 03:39:58;;;;;;;7.40;5.00;;;3.00;99.90;;;;;;4994282;28;20217;-65
2022/01/14 03:42:25;;;;;;;5.67;4.17;;;3.00;99.90;;;;;;4994672;28;20649;-66
2022/01/14 03:44:52;;;;;;;6.80;4.63;;;3.00;99.90;;;;;;4994553;28;20291;-65
2022/01/14 03:47:19;;;;;;;10.83;6.43;;;3.00;99.90;;;;;;4994259;28;20203;-66
2022/01/14 03:49:46;;;;;;;6.57;4.27;;;3.00;99.90;;;;;;4994802;28;20549;-66
2022/01/14 03:52:13;;;;;;;8.40;4.33;;;3.00;99.90;;;;;;4994401;28;20230;-65
2022/01/14 03:54:40;;;;;;;7.57;4.57;;;3.00;99.90;;;;;;4994486;28;20211;-66
2022/01/14 03:57:08;;;;;;;6.43;4.30;;;3.00;99.90;;;;;;4994036;28;20203;-68
2022/01/14 03:59:35;;;;;;;7.40;4.57;;;3.00;99.90;;;;;;4994277;28;20231;-67
2022/01/14 04:02:02;;;;;;;7.43;4.57;;;3.00;99.90;;;;;;4994461;28;20188;-65
2022/01/14 04:04:29;;;;;;;7.10;4.47;;;3.00;99.90;;;;;;4994688;28;20211;-67
2022/01/14 04:06:56;;;;;;;7.00;4.13;;;3.00;99.90;;;;;;4994240;28;20219;-65
2022/01/14 04:09:23;;;;;;;6.50;4.23;;;3.00;99.90;;;;;;4994312;28;20207;-66
2022/01/14 04:11:49;;;;;;;8.23;4.90;;;3.00;99.90;;;;;;4994065;28;20224;-65
2022/01/14 04:17:02;;;;;;;7.53;4.40;;;3.00;99.90;;;;;;4992219;28;20203;-65
2022/01/14 04:19:30;;;;;;;5.27;4.03;;;3.00;99.90;;;;;;4993752;28;20227;-66
2022/01/14 04:21:57;;;;;;;6.40;4.47;;;3.00;99.90;;;;;;4993453;28;20200;-67
2022/01/14 04:24:23;;;;;;;5.90;4.30;;;3.10;99.90;;;;;;4993679;28;20207;-67
2022/01/14 04:26:50;;;;;;;5.03;3.87;;;3.10;99.90;;;;;;4993871;28;20203;-67
2022/01/14 04:29:18;;;;;;;7.17;3.97;;;3.10;99.90;;;;;;4993395;28;20208;-68
2022/01/14 04:31:45;;;;;;;4.73;3.97;;;3.10;99.90;;;;;;4993914;28;20231;-67
2022/01/14 04:34:14;;;;;;;5.03;3.80;;;3.10;99.90;;;;;;4993572;28;20207;-65
2022/01/14 04:36:41;;;;;;;5.57;4.00;;;3.10;99.90;;;;;;4993591;28;20218;-66
2022/01/14 04:39:07;;;;;;;6.40;3.83;;;3.10;99.90;;;;;;4993505;28;20211;-66
2022/01/14 04:41:34;;;;;;;5.17;4.00;;;3.10;99.90;;;;;;4993869;28;20203;-67
2022/01/14 04:44:01;;;;;;;6.30;3.97;;;3.10;99.90;;;;;;4993441;28;20218;-64
2022/01/14 04:46:49;;;;;;;7.37;4.60;;;3.10;99.90;;;;;;4993696;28;20214;-66
2022/01/14 04:49:16;;;;;;;5.37;4.07;;;3.10;99.90;;;;;;4993048;28;20231;-65
2022/01/14 04:51:43;;;;;;;9.07;4.23;;;3.10;99.90;;;;;;4993278;28;20231;-65
2022/01/14 04:54:10;;;;;;;7.03;4.27;;;3.10;99.90;;;;;;4992855;28;20200;-65
2022/01/14 04:56:37;;;;;;;7.33;3.87;;;3.10;99.90;;;;;;4993215;28;20227;-66
2022/01/14 04:59:04;;;;;;;8.13;5.27;;;3.10;99.90;;;;;;4992074;28;20645;-66
2022/01/14 05:01:32;;;;;;;6.93;4.43;;;3.10;99.90;;;;;;4993457;28;20688;-67
2022/01/14 05:03:59;;;;;;;5.83;4.10;;;3.10;99.90;;;;;;4992945;28;20234;-65
2022/01/14 05:06:27;;;;;;;5.83;4.10;;;3.10;99.90;;;;;;4993455;28;20229;-66
2022/01/14 05:08:55;;;;;;;7.97;4.50;;;3.10;99.90;;;;;;4993377;28;20235;-66
2022/01/14 05:11:35;;;;;;;8.33;4.60;;;3.10;99.90;;;;;;4993292;28;20227;-66
2022/01/14 05:14:01;;;;;;;6.20;4.37;;;3.20;99.90;;;;;;4993201;28;20275;-66
2022/01/14 05:16:28;;;;;;;7.03;4.67;;;3.10;99.90;;;;;;4993238;28;20679;-66
2022/01/14 05:18:57;;;;;;;6.00;4.07;;;3.20;99.90;;;;;;4993003;28;20211;-68
2022/01/14 05:21:24;;;;;;;8.83;4.67;;;3.20;99.90;;;;;;4992856;28;20207;-68
2022/01/14 05:23:51;;;;;;;6.60;4.33;;;3.20;99.90;;;;;;4993015;28;20203;-65
2022/01/14 05:26:17;;;;;;;7.63;4.40;;;3.20;99.90;;;;;;4992877;28;20206;-65
2022/01/14 05:28:44;;;;;;;6.60;4.80;;;3.20;99.90;;;;;;4992444;28;20218;-66
2022/01/14 05:31:11;;;;;;;8.00;5.13;;;3.20;99.90;;;;;;4992951;28;20211;-67
2022/01/14 05:33:39;;;;;;;7.70;5.10;;;3.20;99.90;;;;;;4992907;28;20278;-67
2022/01/14 05:36:08;;;;;;;8.73;5.47;;;3.20;99.90;;;;;;4993642;28;20576;-67
2022/01/14 05:38:34;;;;;;;7.67;4.80;;;3.20;99.90;;;;;;4992723;28;20664;-65
2022/01/14 05:41:01;;;;;;;9.13;5.40;;;3.20;99.90;;;;;;4993293;28;20567;-68
2022/01/14 05:43:29;;;;;;;9.27;5.10;;;3.20;99.90;;;;;;4993053;28;20219;-68
2022/01/14 05:45:55;;;;;;;8.57;5.47;;;3.20;99.90;;;;;;4992270;28;20207;-67
2022/01/14 05:48:22;;;;;;;12.13;6.70;;;3.20;99.90;;;;;;4993253;28;20237;-67
2022/01/14 05:50:49;;;;;;;10.10;6.00;;;3.20;99.90;;;;;;4993045;28;20207;-66
2022/01/14 05:53:17;;;;;;;9.43;6.07;;;3.20;99.90;;;;;;4992685;28;20364;-68
2022/01/14 05:55:44;;;;;;;9.03;5.60;;;3.20;99.90;;;;;;4993060;28;20234;-67
2022/01/14 05:58:11;;;;;;;16.03;7.20;;;3.20;99.90;;;;;;4992811;28;20290;-66
2022/01/14 06:00:38;;;;;;;10.13;6.27;;;3.20;99.90;;;;;;4991865;28;20277;-65
2022/01/14 06:03:05;;;;;;;10.63;6.90;;;3.20;99.90;;;;;;4992675;28;20220;-66
2022/01/14 06:05:32;;;;;;;13.87;7.03;;;3.20;99.90;;;;;;4992849;28;20210;-66
2022/01/14 06:07:59;;;;;;;11.37;6.53;;;3.30;99.90;;;;;;4992524;28;20695;-66
2022/01/14 06:10:27;;;;;;;12.63;6.67;;;3.30;99.90;;;;;;4992228;28;20210;-67
2022/01/14 06:12:54;;;;;;;11.33;6.97;;;3.30;99.90;;;;;;4992064;28;20223;-65
2022/01/14 06:15:21;;;;;;;10.00;6.60;;;3.40;99.90;;;;;;4992959;28;20567;-68
2022/01/14 06:17:47;;;;;;;10.63;6.93;;;3.30;99.90;;;;;;4992625;28;20543;-69
2022/01/14 06:20:14;;;;;;;14.57;7.47;;;3.40;99.90;;;;;;4992455;28;20203;-66
2022/01/14 06:22:42;;;;;;;13.23;7.07;;;3.40;99.90;;;;;;4991715;28;20204;-66
2022/01/14 06:25:10;;;;;;;14.03;7.60;;;3.40;99.90;;;;;;4992550;28;20203;-66
2022/01/14 06:27:38;;;;;;;12.30;7.60;;;3.50;99.90;;;;;;4993500;28;20203;-66
2022/01/14 06:30:07;;;;;;;14.30;7.97;;;3.50;99.90;;;;;;4992365;28;20210;-68
2022/01/14 06:32:35;;;;;;;13.47;7.77;;;3.50;99.90;;;;;;4992424;28;20230;-68
2022/01/14 06:35:02;;;;;;;11.87;7.40;;;3.50;99.90;;;;;;4992477;28;20203;-69
2022/01/14 06:37:29;;;;;;;15.13;7.60;;;3.50;99.90;;;;;;4992429;28;20291;-69
2022/01/14 06:39:56;;;;;;;14.93;8.00;;;3.60;99.90;;;;;;4992348;28;20212;-67
2022/01/14 06:42:23;;;;;;;12.90;8.27;;;3.60;99.90;;;;;;4991938;28;20199;-68
2022/01/14 06:44:51;;;;;;;17.00;9.40;;;3.60;99.90;;;;;;4991534;28;20637;-66
2022/01/14 06:47:18;;;;;;;13.67;7.00;;;3.60;99.90;;;;;;4992465;28;20211;-66
2022/01/14 06:49:45;;;;;;;14.30;7.90;;;3.70;99.90;;;;;;4991673;28;20203;-67
2022/01/14 06:52:12;;;;;;;16.23;7.60;;;3.70;99.90;;;;;;4992287;28;20227;-68
2022/01/14 06:54:38;;;;;;;13.47;7.33;;;3.70;99.90;;;;;;4991814;28;20211;-66
2022/01/14 06:57:06;;;;;;;13.60;7.53;;;3.70;99.90;;;;;;4992239;28;20211;-66
2022/01/14 06:59:33;;;;;;;15.43;7.63;;;3.70;99.90;;;;;;4995171;28;20245;-66
2022/01/14 07:02:02;;;;;;;13.43;8.00;;;3.70;99.90;;;;;;4995655;28;20207;-67
2022/01/14 07:04:29;;;;;;;14.27;7.63;;;3.70;99.90;;;;;;4995507;28;20684;-66
2022/01/14 07:06:56;;;;;;;14.63;7.33;;;3.70;99.90;;;;;;4995977;28;20257;-66
2022/01/14 07:09:22;;;;;;;17.90;7.73;;;3.70;99.90;;;;;;4996166;28;20207;-66
2022/01/14 07:11:55;;;;;;;18.33;8.57;;;3.70;99.90;;;;;;4995496;28;20227;-68
2022/01/14 07:14:22;;;;;;;12.20;7.23;;;3.70;99.90;;;;;;4995880;28;20191;-66
2022/01/14 07:16:49;;;;;;;15.47;8.07;;;3.80;99.90;;;;;;4995700;28;20687;-68
2022/01/14 07:19:19;;;;;;;14.97;7.90;;;3.80;99.90;;;;;;4995865;28;20239;-66
2022/01/14 07:21:46;;;;;;;17.47;7.30;;;3.80;99.90;;;;;;4995495;28;20200;-66
2022/01/14 07:24:13;;;;;;;14.80;7.63;;;3.80;99.90;;;;;;4995563;28;20207;-66
2022/01/14 07:26:41;;;;;;;14.33;7.43;;;3.80;99.90;;;;;;4995729;28;20610;-66
2022/01/14 07:29:08;;;;;;;14.23;7.87;;;3.80;99.90;;;;;;4995768;28;20217;-67
2022/01/14 07:31:35;;;;;;;15.97;7.93;;;3.80;99.90;;;;;;4995335;28;20679;-69
2022/01/14 07:34:02;;;;;;;14.03;7.33;;;3.80;99.90;;;;;;4994880;28;20203;-67
2022/01/14 07:36:30;;;;;;;11.20;7.00;;;3.90;99.90;;;;;;4995093;28;20441;-69
2022/01/14 07:38:57;;;;;;;12.97;7.40;;;3.90;99.90;;;;;;4995663;28;20199;-67
2022/01/14 07:41:24;;;;;;;16.37;7.20;;;3.90;99.90;;;;;;4995622;28;20204;-68
2022/01/14 07:43:51;;;;;;;14.80;6.87;;;3.90;99.90;;;;;;4995114;28;20195;-66
2022/01/14 07:46:17;;;;;;;13.47;7.67;;;3.90;99.90;;;;;;4995617;28;20568;-67
2022/01/14 07:48:44;;;;;;;14.50;7.53;;;3.90;99.90;;;;;;4994633;28;20203;-67
2022/01/14 07:51:11;;;;;;;12.07;7.23;;;3.90;99.90;;;;;;4995429;28;20562;-68
2022/01/14 07:53:40;;;;;;;13.33;6.80;;;4.00;99.90;;;;;;4995593;28;20243;-68
2022/01/14 07:56:11;;;;;;;11.10;6.87;;;4.00;99.90;;;;;;4996073;28;20204;-66
2022/01/14 07:58:39;;;;;;;10.87;6.60;;;4.00;99.90;;;;;;4995356;28;20195;-66
2022/01/14 08:01:05;;;;;;;9.20;5.53;;;4.00;99.90;;;;;;4995626;28;20696;-65
2022/01/14 08:03:32;;;;;;;11.40;6.40;;;4.00;99.90;;;;;;4995043;28;20257;-67
2022/01/14 08:06:00;;;;;;;10.97;5.90;;;4.00;99.90;;;;;;4994941;28;20203;-66
2022/01/14 08:08:28;;;;;;;12.17;5.80;;;4.10;99.90;;;;;;4994565;28;20259;-65
2022/01/14 08:10:58;;;;;;;8.77;5.00;;;4.10;99.90;;;;;;4994348;28;20211;-67
2022/01/14 08:13:25;;;;;;;12.13;5.43;;;4.10;99.90;;;;;;4994572;28;20227;-68
2022/01/14 08:15:51;;;;;;;9.23;4.50;;;4.10;99.90;;;;;;4994375;28;20218;-66
2022/01/14 08:18:18;;;;;;;10.10;5.10;;;4.20;99.90;;;;;;4994736;28;20549;-65
2022/01/14 08:20:45;;;;;;;9.80;5.50;;;4.20;99.90;;;;;;4994677;28;20211;-66
2022/01/14 08:23:12;;;;;;;9.53;5.07;;;4.20;99.90;;;;;;4994754;28;20203;-68
2022/01/14 08:25:39;;;;;;;10.00;5.00;;;4.20;99.90;;;;;;4994556;28;20743;-66
2022/01/14 08:28:07;;;;;;;8.77;5.00;;;4.30;99.90;;;;;;4994391;28;20297;-66
2022/01/14 08:30:34;;;;;;;6.43;4.50;;;4.30;99.90;;;;;;4994467;28;20208;-68
2022/01/14 08:33:00;;;;;;;7.60;5.00;;;4.30;99.90;;;;;;4994226;28;20714;-69
2022/01/14 08:35:29;;;;;;;7.37;4.80;;;4.30;99.90;;;;;;4993977;28;20212;-68
2022/01/14 08:37:56;;;;;;;7.10;4.80;;;4.40;99.90;;;;;;4993959;28;20214;-67
2022/01/14 08:40:22;;;;;;;6.77;4.37;;;4.40;99.90;;;;;;4994173;28;20207;-66
2022/01/14 08:42:52;;;;;;;7.30;4.70;;;4.40;99.90;;;;;;4993972;28;20203;-65
2022/01/14 08:45:21;;;;;;;7.53;4.60;;;4.40;99.90;;;;;;4993943;28;20211;-67
2022/01/14 08:47:48;;;;;;;8.10;4.57;;;4.40;99.90;;;;;;4994031;28;20218;-67
2022/01/14 08:50:14;;;;;;;8.80;4.80;;;4.40;99.90;;;;;;4993713;28;20213;-65
2022/01/14 08:52:41;;;;;;;10.43;4.60;;;4.40;99.90;;;;;;4993378;28;20227;-67
2022/01/14 08:55:08;;;;;;;7.20;4.37;;;4.40;99.90;;;;;;4993856;28;20602;-66
2022/01/14 08:57:35;;;;;;;7.70;4.40;;;4.40;99.90;;;;;;4993208;28;20210;-65
2022/01/14 09:00:02;;;;;;;7.53;4.87;;;4.50;99.90;;;;;;4993553;28;20241;-67
2022/01/14 09:02:33;;;;;;;10.00;4.90;;;4.40;99.90;;;;;;4993678;28;20207;-66
2022/01/14 09:05:00;;;;;;;10.23;4.93;;;4.40;99.90;;;;;;4993682;28;20290;-67
2022/01/14 09:07:28;;;;;;;9.83;5.30;;;4.40;99.90;;;;;;4993279;28;20679;-68
2022/01/14 09:09:55;;;;;;;6.90;4.80;;;4.50;99.90;;;;;;4993692;28;20261;-67
2022/01/14 09:12:22;;;;;;;7.67;5.43;;;4.40;99.90;;;;;;4993441;28;20241;-67
2022/01/14 09:14:50;;;;;;;8.30;4.80;;;4.50;99.90;;;;;;4993757;28;20562;-67
2022/01/14 09:17:17;;;;;;;6.47;4.87;;;4.50;99.90;;;;;;4993743;28;20569;-65
2022/01/14 09:19:45;;;;;;;10.10;5.57;;;4.40;99.90;;;;;;4993397;28;20211;-68
2022/01/14 09:22:15;;;;;;;9.30;5.47;;;4.50;99.90;;;;;;4992922;28;20325;-66
2022/01/14 09:24:43;;;;;;;9.67;5.43;;;4.50;99.90;;;;;;4993405;28;20291;-66
2022/01/14 09:27:10;;;;;;;9.17;5.23;;;4.50;99.90;;;;;;4993200;28;20203;-68
2022/01/14 09:29:37;;;;;;;10.57;5.90;;;4.50;99.90;;;;;;4993214;28;20652;-67
2022/01/14 09:32:05;;;;;;;7.20;5.20;;;4.50;99.90;;;;;;4993505;28;20207;-68
2022/01/14 09:34:32;;;;;;;8.10;5.83;;;4.50;99.90;;;;;;4993158;28;20696;-66
2022/01/14 09:37:00;;;;;;;8.17;5.37;;;4.50;99.90;;;;;;4993185;28;20219;-68
2022/01/14 09:39:27;;;;;;;10.07;5.47;;;4.50;99.90;;;;;;4992887;28;20963;-68
2022/01/14 09:41:54;;;;;;;8.53;5.70;;;4.50;99.90;;;;;;4993213;28;20204;-66
2022/01/14 09:44:21;;;;;;;9.07;5.50;;;4.50;99.90;;;;;;4992917;28;20203;-67
2022/01/14 09:46:49;;;;;;;13.27;5.97;;;4.40;99.90;;;;;;4993202;28;20282;-67
2022/01/14 09:49:16;;;;;;;8.10;5.37;;;4.50;99.90;;;;;;4992944;28;20203;-67
2022/01/14 09:51:43;;;;;;;8.83;5.63;;;4.50;99.90;;;;;;4992867;28;20217;-67
2022/01/14 09:54:12;;;;;;;10.47;5.40;;;4.50;99.90;;;;;;4993114;28;20242;-66
2022/01/14 09:56:41;;;;;;;8.43;5.27;;;4.50;99.90;;;;;;4992434;28;20210;-66
2022/01/14 09:59:09;;;;;;;8.57;4.97;;;4.50;99.90;;;;;;4992900;28;20676;-65
2022/01/14 10:01:39;;;;;;;7.27;5.20;;;4.50;99.90;;;;;;4992441;28;20291;-66
2022/01/14 10:04:06;;;;;;;8.63;4.87;;;4.50;99.90;;;;;;4993025;28;20184;-67
2022/01/14 10:06:37;;;;;;;7.80;5.50;;;4.50;99.90;;;;;;4992421;28;20611;-67
2022/01/14 10:09:08;;;;;;;8.43;5.23;;;4.50;99.90;;;;;;4992561;28;20222;-66
2022/01/14 10:11:36;;;;;;;7.60;5.07;;;4.50;99.90;;;;;;4992998;28;20228;-68
2022/01/14 10:14:12;;;;;;;10.77;5.10;;;4.50;99.90;;;;;;4992152;28;20230;-69
2022/01/14 10:16:41;;;;;;;7.87;4.80;;;4.50;99.90;;;;;;4992224;28;20213;-68
2022/01/14 10:19:29;;;;;;;9.87;5.20;;;4.60;99.90;;;;;;4992640;28;20263;-68
2022/01/14 10:21:57;;;;;;;6.73;4.40;;;4.60;99.90;;;;;;4992567;28;20195;-67
2022/01/14 10:24:26;;;;;;;6.90;4.60;;;4.60;99.90;;;;;;4992623;28;20199;-69
2022/01/14 10:26:57;;;;;;;8.67;4.37;;;4.60;99.90;;;;;;4992284;28;20222;-66
2022/01/14 10:29:29;;;;;;;8.50;5.30;;;4.60;99.90;;;;;;4978273;28;20606;-68
2022/01/14 10:31:56;;;;;;;8.07;4.80;;;4.60;99.90;;;;;;4993010;28;20208;-66
2022/01/14 10:34:23;;;;;;;6.50;4.60;;;4.70;99.90;;;;;;4996090;28;20234;-67
2022/01/14 10:36:51;;;;;;;7.17;4.40;;;4.70;99.90;;;;;;4996474;28;20245;-66
2022/01/14 10:39:20;;;;;;;10.57;4.37;;;4.70;99.90;;;;;;4996397;28;20230;-67
2022/01/14 10:41:47;;;;;;;9.60;4.90;;;4.70;99.90;;;;;;4996536;28;20207;-67
2022/01/14 10:44:28;;;;;;;11.50;5.47;;;4.80;99.90;;;;;;4996521;28;20210;-66
2022/01/14 10:47:12;;;;;;;8.13;4.77;;;4.80;99.90;;;;;;4996944;28;20231;-66
2022/01/14 10:49:40;;;;;;;6.50;4.20;;;4.80;99.90;;;;;;4996350;28;20203;-67
2022/01/14 10:52:11;;;;;;;6.17;4.03;;;4.80;99.90;;;;;;4996109;28;20690;-66
2022/01/14 10:54:40;;;;;;;8.70;3.97;;;4.80;99.90;;;;;;4996186;28;20459;-69
2022/01/14 10:57:18;;;;;;;6.30;4.20;;;4.80;99.90;;;;;;4996131;28;20207;-67
2022/01/14 10:59:49;;;;;;;6.20;4.07;;;4.80;99.90;;;;;;4995912;28;20243;-68
2022/01/14 11:02:37;;;;;;;6.50;4.20;;;4.70;99.90;;;;;;4995885;28;20211;-68
2022/01/14 11:05:06;;;;;;;5.90;4.30;;;4.80;99.90;;;;;;4995636;28;20200;-69
2022/01/14 11:07:33;;;;;;;6.93;4.27;;;4.80;99.90;;;;;;4995993;28;20213;-68
2022/01/14 11:10:01;;;;;;;6.27;4.00;;;4.80;99.90;;;;;;4998750;28;20211;-68
2022/01/14 11:12:29;;;;;;;6.60;4.57;;;4.70;99.90;;;;;;4989927;28;20226;-66
2022/01/14 11:14:57;;;;;;;7.13;4.63;;;4.70;99.90;;;;;;4995956;28;20564;-66
2022/01/14 11:17:24;;;;;;;7.90;4.87;;;4.70;99.90;;;;;;4995321;28;20239;-67
2022/01/14 11:19:52;;;;;;;8.20;4.97;;;4.70;99.90;;;;;;4995393;28;20294;-67
2022/01/14 11:25:11;;;;;;;9.93;5.60;;;4.60;99.90;;;;;;4989929;28;20246;-67
2022/01/14 11:27:40;;;;;;;8.70;5.60;;;4.60;99.90;;;;;;4995237;28;20223;-68
2022/01/14 11:30:13;;;;;;;8.50;5.70;;;4.50;99.90;;;;;;4977701;28;20208;-66
2022/01/14 11:32:53;;;;;;;8.33;5.73;;;4.50;99.90;;;;;;4976118;28;20223;-67
2022/01/14 11:35:22;;;;;;;14.97;5.93;;;4.50;99.90;;;;;;4975771;28;20722;-67
2022/01/14 11:37:49;;;;;;;8.37;5.30;;;4.50;99.90;;;;;;4975521;28;20204;-69
2022/01/14 11:40:16;;;;;;;7.97;5.47;;;4.50;99.90;;;;;;4976748;28;20215;-67
2022/01/14 11:42:45;;;;;;;8.20;5.40;;;4.40;99.90;;;;;;4994831;28;20217;-69
2022/01/14 11:45:15;;;;;;;7.80;5.50;;;4.40;99.90;;;;;;4994175;28;20210;-65
2022/01/14 11:47:59;;;;;;;9.70;5.40;;;4.40;99.90;;;;;;4994851;28;20195;-67
2022/01/14 11:50:48;;;;;;;9.93;5.80;;;4.40;99.90;;;;;;4994719;28;20221;-67
2022/01/14 11:53:35;;;;;;;10.33;5.07;;;4.40;99.90;;;;;;4995021;28;20337;-66
2022/01/14 11:56:02;;;;;;;8.10;5.27;;;4.30;99.90;;;;;;4994717;28;20561;-67
2022/01/14 11:58:29;;;;;;;10.53;5.30;;;4.30;99.90;;;;;;4994773;28;20214;-67
2022/01/14 12:00:57;;;;;;;7.57;4.90;;;4.30;99.90;;;;;;4994716;28;20235;-68
2022/01/14 12:03:28;;;;;;;8.27;5.77;;;4.30;99.90;;;;;;4994797;28;20208;-66
2022/01/14 12:06:00;;;;;;;7.67;4.80;;;4.30;99.90;;;;;;4994527;28;20191;-64
2022/01/14 12:08:29;;;;;;;7.80;5.30;;;4.30;99.90;;;;;;4994626;28;20198;-65
2022/01/14 12:11:20;;;;;;;8.57;5.27;;;4.30;99.90;;;;;;4994416;28;20595;-67
2022/01/14 12:13:54;;;;;;;12.70;5.57;;;4.30;99.90;;;;;;4994547;28;20216;-67
2022/01/14 12:19:23;;;;;;;7.13;4.90;;;4.30;99.90;;;;;;4977162;28;20290;-68
2022/01/14 12:22:06;;;;;;;7.77;5.10;;;4.30;99.90;;;;;;4993842;28;20298;-70
2022/01/14 12:24:53;;;;;;;7.17;4.40;;;4.30;99.90;;;;;;4993871;28;20523;-68
2022/01/14 12:27:26;;;;;;;7.67;4.63;;;4.30;99.90;;;;;;4993835;28;20250;-69
2022/01/14 12:30:04;;;;;;;7.97;4.73;;;4.30;99.90;;;;;;4994379;28;20306;-69
2022/01/14 12:32:37;;;;;;;6.83;4.50;;;4.30;99.90;;;;;;4994217;28;20200;-70
2022/01/14 12:35:12;;;;;;;6.57;4.67;;;4.30;99.90;;;;;;4994078;28;20267;-70
2022/01/14 12:37:43;;;;;;;6.57;4.47;;;4.30;99.90;;;;;;4994610;28;20196;-68
2022/01/14 12:40:14;;;;;;;6.23;3.90;;;4.30;99.90;;;;;;4993424;28;20192;-68
2022/01/14 12:42:46;;;;;;;5.83;4.07;;;4.30;99.90;;;;;;4990884;28;20188;-68
2022/01/14 12:45:28;;;;;;;8.23;4.40;;;4.30;99.90;;;;;;4993851;28;20637;-69
2022/01/14 12:48:20;;;;;;;6.83;4.10;;;4.30;99.90;;;;;;4993394;28;20287;-68
2022/01/14 12:50:47;;;;;;;5.57;3.60;;;4.30;99.90;;;;;;4993603;28;20231;-70
2022/01/14 12:53:19;;;;;;;5.75;3.90;;;4.30;99.90;;;;;;4993679;28;20210;-69
2022/01/14 12:55:46;;;;;;;8.50;4.47;;;4.30;99.90;;;;;;4993694;28;20441;-68
2022/01/14 12:58:13;;;;;;;7.03;4.03;;;4.30;99.90;;;;;;4993685;28;20664;-68
2022/01/14 13:00:42;;;;;;;6.43;4.00;;;4.30;99.90;;;;;;4989448;28;20235;-68
2022/01/14 13:03:15;;;;;;;5.10;3.60;;;4.20;99.90;;;;;;4993433;28;20665;-67
2022/01/14 13:05:42;;;;;;;7.77;4.07;;;4.20;99.90;;;;;;4992982;28;20283;-67
2022/01/14 13:08:10;;;;;;;5.87;3.93;;;4.20;99.90;;;;;;4993042;28;20210;-67
2022/01/14 13:10:37;;;;;;;6.33;3.70;;;4.20;99.90;;;;;;4992451;28;20208;-68
2022/01/14 13:13:04;;;;;;;5.10;3.73;;;4.20;99.90;;;;;;4989266;28;20298;-68
2022/01/14 13:15:33;;;;;;;4.23;3.40;;;4.20;99.90;;;;;;4990040;28;20242;-70
2022/01/14 13:18:02;;;;;;;4.73;3.70;;;4.20;99.90;;;;;;4988161;28;20242;-68
2022/01/14 13:20:32;;;;;;;5.70;3.60;;;4.20;99.90;;;;;;4988991;28;20577;-69
2022/01/14 13:22:59;;;;;;;4.00;3.30;;;4.20;99.90;;;;;;4988706;28;20195;-69
2022/01/14 13:25:29;;;;;;;5.27;3.50;;;4.20;99.90;;;;;;4989210;28;20250;-69